Whitehouse, Ohio
Current Conditions -  °F | °C
As of 11:52 AM on Thursday 27 Nov 2014 (Local Time) from KTOL Reporting Station
Overcast Overcast  
Wind Chill: 23°   Ceiling: 4100
Heat Index: 32°   Visibility: 9mi
Dew Point: 22°   Wind: 13mph
Humidity: 66%   Direction: 280°W
Pressure: 30.2"   Gusts: NA
Location:  41.52°N, 83.8°W
Report Text: KTOL 271652Z AUTO 28011KT 9SM SCT028 BKN041 OVC060 00/M06 A3020 RMK AO2 SLP233 T00001056
Loading
Personal Weather Stations






























Interactive Weather Map New forecast layout! Learn more

10-Day Weather Forecast

Advertisements
Track Severe Weather on mobile